createdAt,value
2023-02-01T00:02:55.707Z,5.39
2023-02-01T00:07:57.169Z,5.44
2023-02-01T00:12:58.706Z,5.53
2023-02-01T00:18:00.216Z,5.56
2023-02-01T00:23:01.688Z,5.46
2023-02-01T00:28:03.167Z,5.39
2023-02-01T00:33:04.763Z,5.46
2023-02-01T00:38:06.317Z,5.52
2023-02-01T00:43:07.812Z,5.50
2023-02-01T00:48:09.376Z,5.50
2023-02-01T00:53:11.805Z,5.45
2023-02-01T00:58:13.370Z,5.46
2023-02-01T01:03:20.607Z,5.54
2023-02-01T01:08:22.079Z,5.56
2023-02-01T01:13:23.799Z,5.45
2023-02-01T01:18:25.390Z,5.44
2023-02-01T01:23:28.014Z,5.47
2023-02-01T01:28:29.501Z,5.60
2023-02-01T01:33:31.026Z,5.60
2023-02-01T01:38:32.509Z,5.47
2023-02-01T01:43:53.259Z,5.57
2023-02-01T01:49:18.626Z,5.57
2023-02-01T01:54:28.315Z,5.79
2023-02-01T01:59:33.417Z,5.73
2023-02-01T02:04:36.256Z,5.60
2023-02-01T02:09:38.610Z,5.74
2023-02-01T02:14:41.300Z,5.81
2023-02-01T02:20:11.786Z,5.78
2023-02-01T02:25:45.529Z,5.54
2023-02-01T02:31:08.135Z,5.44
2023-02-01T02:36:35.489Z,5.47
2023-02-01T02:42:06.369Z,5.56
2023-02-01T02:47:27.054Z,5.46
2023-02-01T02:52:47.910Z,5.35
2023-02-01T02:58:09.146Z,5.38
2023-02-01T03:03:29.451Z,5.51
2023-02-01T03:08:32.277Z,5.58
2023-02-01T03:13:39.565Z,5.57
2023-02-01T03:18:58.918Z,5.45
2023-02-01T03:24:08.878Z,5.48
2023-02-01T03:29:15.498Z,5.51
2023-02-01T03:34:17.645Z,5.45
2023-02-01T03:39:28.560Z,5.36
2023-02-01T03:44:42.369Z,5.39
2023-02-01T03:49:48.820Z,5.51
2023-02-01T03:54:53.132Z,5.63
2023-02-01T04:00:09.105Z,5.66
2023-02-01T04:05:10.701Z,5.56
2023-02-01T04:10:13.032Z,5.53
2023-02-01T04:15:14.640Z,5.57
2023-02-01T04:20:16.521Z,5.67
2023-02-01T04:25:18.388Z,5.54
2023-02-01T04:30:20.059Z,5.48
2023-02-01T04:35:21.763Z,5.59
2023-02-01T04:40:23.523Z,5.69
2023-02-01T04:45:25.283Z,5.64
2023-02-01T04:50:26.854Z,5.53
2023-02-01T04:55:28.357Z,5.49
2023-02-01T05:00:29.943Z,5.70
2023-02-01T05:05:31.667Z,5.78
2023-02-01T05:10:33.206Z,5.73
2023-02-01T05:15:34.820Z,5.66
2023-02-01T05:20:36.362Z,5.66
2023-02-01T05:25:37.883Z,5.68
2023-02-01T05:30:42.067Z,5.77
2023-02-01T05:35:43.860Z,5.62
2023-02-01T05:40:50.428Z,5.59
2023-02-01T05:45:55.292Z,5.62
2023-02-01T05:50:56.835Z,5.70
2023-02-01T05:55:58.395Z,5.71
2023-02-01T06:01:01.450Z,5.69
2023-02-01T06:06:03.096Z,5.56
2023-02-01T06:11:06.093Z,5.50
2023-02-01T06:16:08.467Z,5.67
2023-02-01T06:21:10.188Z,5.66
2023-02-01T06:26:11.674Z,5.39
2023-02-01T06:31:13.655Z,5.33
2023-02-01T06:36:16.997Z,5.33
2023-02-01T06:41:18.892Z,5.35
2023-02-01T06:46:20.568Z,5.26
2023-02-01T06:51:25.804Z,5.05
2023-02-01T06:56:27.876Z,4.96
2023-02-01T07:01:29.391Z,4.99
2023-02-01T07:06:32.599Z,5.03
2023-02-01T07:11:34.258Z,5.03
2023-02-01T07:16:35.886Z,4.90
2023-02-01T07:21:37.431Z,4.88
2023-02-01T07:26:39.028Z,4.89
2023-02-01T07:31:40.554Z,4.91
2023-02-01T07:36:42.828Z,4.96
2023-02-01T07:41:44.453Z,4.86
2023-02-01T07:46:45.925Z,4.78
2023-02-01T07:51:47.403Z,4.87
2023-02-01T07:56:48.923Z,4.93
2023-02-01T08:01:50.535Z,5.21
2023-02-01T08:06:52.085Z,5.41
2023-02-01T08:11:53.582Z,5.33
2023-02-01T08:16:55.153Z,5.38
2023-02-01T08:21:56.677Z,5.47
2023-02-01T08:26:58.221Z,5.61
2023-02-01T08:31:59.804Z,5.58
2023-02-01T08:37:01.337Z,5.51
2023-02-01T08:42:21.379Z,5.63
2023-02-01T08:47:23.284Z,5.70
2023-02-01T08:52:24.878Z,5.76
2023-02-01T08:57:26.414Z,5.79
2023-02-01T09:02:27.930Z,5.68
2023-02-01T09:07:29.450Z,5.78
2023-02-01T09:12:32.686Z,5.88
2023-02-01T09:17:34.218Z,5.92
2023-02-01T09:22:35.767Z,5.84
2023-02-01T09:27:37.291Z,5.78
2023-02-01T09:32:38.829Z,5.72
2023-02-01T09:37:40.422Z,5.67
2023-02-01T09:43:10.974Z,5.54
2023-02-01T09:48:21.004Z,5.25
2023-02-01T09:53:35.941Z,5.10
2023-02-01T09:58:43.256Z,5.17
2023-02-01T10:03:44.763Z,5.20
2023-02-01T10:08:59.087Z,5.39
2023-02-01T10:14:15.291Z,5.49
2023-02-01T10:19:19.515Z,5.45
2023-02-01T10:24:32.059Z,5.41
2023-02-01T10:29:40.270Z,5.44
2023-02-01T10:34:43.346Z,5.49
2023-02-01T10:39:44.843Z,5.58
2023-02-01T10:44:49.060Z,5.65
2023-02-01T10:49:53.256Z,5.57
2023-02-01T10:54:54.762Z,5.68
2023-02-01T10:59:56.975Z,5.90
2023-02-01T11:05:10.357Z,6.03
2023-02-01T11:10:39.732Z,5.92
2023-02-01T11:15:45.360Z,5.97
2023-02-01T11:20:53.089Z,5.84
2023-02-01T11:25:54.465Z,5.78
2023-02-01T11:30:59.584Z,5.90
2023-02-01T11:36:08.940Z,6.03
2023-02-01T11:41:27.109Z,6.10
2023-02-01T11:46:34.176Z,5.99
2023-02-01T11:51:48.135Z,6.06
2023-02-01T11:57:11.451Z,6.24
2023-02-01T12:02:46.843Z,6.40
2023-02-01T12:08:12.688Z,6.46
2023-02-01T12:13:20.039Z,6.44
2023-02-01T12:18:44.126Z,6.42
2023-02-01T12:23:51.767Z,6.58
2023-02-01T12:29:02.276Z,6.55
2023-02-01T12:34:51.119Z,6.56
2023-02-01T12:40:23.100Z,6.54
2023-02-01T12:45:35.780Z,6.52
2023-02-01T12:50:46.756Z,6.59
2023-02-01T12:55:53.105Z,6.74
2023-02-01T13:01:05.696Z,6.72
2023-02-01T13:06:14.133Z,6.66
2023-02-01T13:11:49.033Z,6.55
2023-02-01T13:16:54.257Z,6.66
2023-02-01T13:22:12.954Z,6.81
2023-02-01T13:27:15.705Z,6.87
2023-02-01T13:33:51.509Z,6.99
2023-02-01T13:38:00.550Z,7.12
2023-02-01T13:43:09.106Z,7.00
2023-02-01T13:48:21.794Z,6.90
2023-02-01T13:53:37.812Z,7.08
2023-02-01T13:58:42.339Z,7.20
2023-02-01T14:03:47.930Z,7.14
2023-02-01T14:09:09.390Z,7.24
2023-02-01T14:14:17.056Z,7.14
2023-02-01T14:19:33.147Z,7.19
2023-02-01T14:24:36.501Z,7.14
2023-02-01T14:29:40.271Z,7.09
2023-02-01T14:34:47.829Z,7.21
2023-02-01T14:40:14.168Z,7.32
2023-02-01T14:45:19.780Z,7.31
2023-02-01T14:50:31.609Z,7.33
2023-02-01T14:55:59.882Z,7.10
2023-02-01T15:01:03.862Z,6.67
2023-02-01T15:06:07.120Z,6.73
2023-02-01T15:11:15.236Z,6.78
2023-02-01T15:16:18.022Z,6.78
2023-02-01T15:21:28.610Z,6.70
2023-02-01T15:26:33.460Z,6.64
2023-02-01T15:31:38.817Z,6.57
2023-02-01T15:36:45.827Z,6.71
2023-02-01T15:42:02.952Z,6.77
2023-02-01T15:47:17.360Z,6.93
2023-02-01T15:52:31.379Z,7.03
2023-02-01T15:57:36.993Z,7.17
2023-02-01T16:02:51.817Z,7.14
2023-02-01T16:08:11.607Z,6.95
2023-02-01T16:13:14.543Z,6.80
2023-02-01T16:18:18.776Z,6.78
2023-02-01T16:23:21.435Z,6.74
2023-02-01T16:28:22.958Z,6.71
2023-02-01T16:33:25.081Z,6.58
2023-02-01T16:38:27.588Z,6.62
2023-02-01T16:43:29.135Z,6.59
2023-02-01T16:48:34.601Z,6.53
2023-02-01T16:53:48.312Z,6.51
2023-02-01T16:58:55.279Z,6.42
2023-02-01T17:03:57.297Z,6.39
2023-02-01T17:09:00.372Z,6.42
2023-02-01T17:14:25.926Z,6.38
2023-02-01T17:19:27.560Z,6.34
2023-02-01T17:24:42.715Z,6.46
2023-02-01T17:29:49.825Z,6.46
2023-02-01T17:34:51.614Z,6.39
2023-02-01T17:39:56.004Z,6.35
2023-02-01T17:45:11.921Z,6.36
2023-02-01T17:50:13.936Z,6.34
2023-02-01T17:55:22.648Z,6.27
2023-02-01T18:00:24.385Z,6.30
2023-02-01T18:05:43.047Z,6.32
2023-02-01T18:10:44.905Z,6.52
2023-02-01T18:15:46.525Z,6.58
2023-02-01T18:20:49.405Z,6.59
2023-02-01T18:25:52.545Z,6.56
2023-02-01T18:30:54.396Z,6.53
2023-02-01T18:35:55.988Z,6.40
2023-02-01T18:41:01.129Z,6.38
2023-02-01T18:46:02.754Z,6.38
2023-02-01T18:51:05.102Z,6.36
2023-02-01T18:56:07.024Z,6.43
2023-02-01T19:01:15.521Z,6.46
2023-02-01T19:06:17.947Z,6.47
2023-02-01T19:11:19.593Z,6.44
2023-02-01T19:16:21.215Z,6.42
2023-02-01T19:21:22.702Z,6.44
2023-02-01T19:26:24.266Z,6.36
2023-02-01T19:31:25.902Z,6.29
2023-02-01T19:36:27.816Z,6.18
2023-02-01T19:41:29.289Z,6.12
2023-02-01T19:46:30.859Z,6.02
2023-02-01T19:51:32.352Z,6.03
2023-02-01T19:56:33.907Z,6.05
2023-02-01T20:01:37.146Z,6.07
2023-02-01T20:06:40.044Z,6.09
2023-02-01T20:11:41.578Z,6.17
2023-02-01T20:16:43.700Z,6.30
2023-02-01T20:21:45.283Z,6.38
2023-02-01T20:26:49.073Z,6.31
2023-02-01T20:31:51.496Z,6.19
2023-02-01T20:36:52.992Z,6.08
2023-02-01T20:41:55.106Z,5.93
2023-02-01T20:46:56.761Z,5.81
2023-02-01T20:51:58.332Z,5.63
2023-02-01T20:56:59.855Z,5.65
2023-02-01T21:02:01.545Z,5.72
2023-02-01T21:07:03.677Z,5.85
2023-02-01T21:12:05.307Z,5.86
2023-02-01T21:17:06.806Z,5.79
2023-02-01T21:22:09.553Z,5.75
2023-02-01T21:27:11.172Z,5.67
2023-02-01T21:32:13.514Z,5.65
2023-02-01T21:37:15.086Z,5.75
2023-02-01T21:42:18.402Z,5.70
2023-02-01T21:47:26.229Z,5.75
2023-02-01T21:52:28.477Z,5.84
2023-02-01T21:57:29.966Z,5.90
2023-02-01T22:02:31.630Z,5.97
2023-02-01T22:07:34.924Z,5.97
2023-02-01T22:12:36.440Z,6.02
2023-02-01T22:17:38.016Z,6.07
2023-02-01T22:22:39.495Z,6.06
2023-02-01T22:28:30.957Z,6.06
2023-02-01T22:33:03.439Z,6.12
2023-02-01T22:38:04.920Z,6.15
2023-02-01T22:43:06.430Z,6.02
2023-02-01T22:48:08.432Z,6.03
2023-02-01T22:53:10.471Z,6.03
2023-02-01T22:58:12.798Z,5.99
2023-02-01T23:03:14.405Z,6.00
2023-02-01T23:08:15.882Z,5.97
2023-02-01T23:13:17.396Z,5.96
2023-02-01T23:18:18.919Z,5.97
2023-02-01T23:23:20.430Z,6.00
2023-02-01T23:28:21.963Z,6.05
2023-02-01T23:33:27.496Z,6.09
2023-02-01T23:38:29.837Z,6.05
2023-02-01T23:43:50.202Z,5.99
2023-02-01T23:48:52.270Z,5.85
2023-02-01T23:53:55.271Z,5.78
2023-02-01T23:58:57.156Z,5.79
